Time;durP1;ratioP1;P1;durP2;ratioP2;P2;SDS_P1;SDS_P2;PMS_P1;PMS_P2;Temp;Humidity;BMP_temperature;BMP_pressure;BME280_temperature;BME280_humidity;BME280_pressure;Samples;Min_cycle;Max_cycle;Signal;HPM_P1;HPM_P2
2024/03/04 00:01:47;;;;;;;;;;;17.70;65.70;;;;;;5043033;28;1472;-72
2024/03/04 00:04:13;;;;;;;;;;;17.70;65.70;;;;;;5042607;28;1180;-72
2024/03/04 00:06:38;;;;;;;;;;;17.70;65.70;;;;;;5041133;28;1386;-72
2024/03/04 00:09:04;;;;;;;;;;;17.70;65.70;;;;;;5040121;28;1311;-72
2024/03/04 00:11:30;;;;;;;;;;;17.70;65.70;;;;;;5042081;28;1374;-72
2024/03/04 00:13:56;;;;;;;;;;;17.70;65.70;;;;;;5041019;28;2345;-73
2024/03/04 00:16:22;;;;;;;;;;;17.70;65.70;;;;;;5039532;28;1300;-71
2024/03/04 00:18:48;;;;;;;;;;;17.70;65.70;;;;;;5040820;28;1554;-71
2024/03/04 00:21:13;;;;;;;;;;;17.70;65.80;;;;;;5041135;28;1368;-71
2024/03/04 00:23:39;;;;;;;;;;;17.70;65.80;;;;;;5037985;28;1292;-70
2024/03/04 00:26:07;;;;;;;;;;;17.70;65.80;;;;;;5041232;28;1017;-69
2024/03/04 00:28:32;;;;;;;;;;;17.60;65.70;;;;;;5040393;28;1470;-70
2024/03/04 00:30:58;;;;;;;;;;;17.70;65.80;;;;;;5037083;28;1278;-70
2024/03/04 00:33:23;;;;;;;;;;;17.70;65.80;;;;;;5039576;28;1973;-70
2024/03/04 00:35:49;;;;;;;;;;;17.70;65.80;;;;;;5039693;28;1373;-70
2024/03/04 00:38:14;;;;;;;;;;;17.60;65.80;;;;;;5040705;28;1436;-71
2024/03/04 00:40:40;;;;;;;;;;;17.60;65.80;;;;;;5042303;28;1148;-71
2024/03/04 00:43:05;;;;;;;;;;;17.70;65.80;;;;;;5042695;28;1260;-72
2024/03/04 00:45:31;;;;;;;;;;;17.60;65.80;;;;;;5039237;28;1375;-71
2024/03/04 00:47:56;;;;;;;;;;;17.70;65.90;;;;;;5039049;28;890;-72
2024/03/04 00:50:22;;;;;;;;;;;17.60;65.80;;;;;;5038806;28;1446;-69
2024/03/04 00:52:48;;;;;;;;;;;17.60;65.90;;;;;;5035776;28;1418;-72
2024/03/04 00:55:14;;;;;;;;;;;17.60;65.90;;;;;;5036459;28;1158;-70
2024/03/04 00:57:40;;;;;;;;;;;17.60;65.90;;;;;;5039240;28;1309;-71
2024/03/04 01:00:08;;;;;;;;;;;17.60;65.90;;;;;;5039568;28;1622;-72
2024/03/04 01:02:34;;;;;;;;;;;17.60;65.90;;;;;;5040001;28;1584;-72
2024/03/04 01:04:59;;;;;;;;;;;17.60;65.90;;;;;;5038713;28;1257;-72
2024/03/04 01:07:25;;;;;;;;;;;17.60;65.90;;;;;;5072054;28;1079;-72
2024/03/04 01:09:50;;;;;;;;;;;17.60;66.00;;;;;;5038709;28;934;-72
2024/03/04 01:12:16;;;;;;;;;;;17.60;65.90;;;;;;5039659;28;1355;-70
2024/03/04 01:14:41;;;;;;;;;;;17.60;65.90;;;;;;5040395;28;1977;-72
2024/03/04 01:17:16;;;;;;;;;;;17.60;65.90;;;;;;5040301;28;1586;-72
2024/03/04 01:19:47;;;;;;;;;;;17.60;65.90;;;;;;5043217;28;1575;-73
2024/03/04 01:22:14;;;;;;;;;;;17.60;66.00;;;;;;5047498;28;1622;-71
2024/03/04 01:24:40;;;;;;;;;;;17.60;66.00;;;;;;5053242;28;1511;-70
2024/03/04 01:27:06;;;;;;;;;;;17.60;66.00;;;;;;5043103;28;1169;-71
2024/03/04 01:29:31;;;;;;;;;;;17.60;66.00;;;;;;5038124;28;1388;-70
2024/03/04 01:31:58;;;;;;;;;;;17.60;66.00;;;;;;5039204;28;1476;-71
2024/03/04 01:34:24;;;;;;;;;;;17.60;66.00;;;;;;5040566;28;1953;-70
2024/03/04 01:36:50;;;;;;;;;;;17.60;66.00;;;;;;5040151;28;1261;-70
2024/03/04 01:39:15;;;;;;;;;;;17.60;66.00;;;;;;5039469;28;906;-70
2024/03/04 01:41:41;;;;;;;;;;;17.60;66.00;;;;;;5038448;28;1698;-70
2024/03/04 01:44:06;;;;;;;;;;;17.60;66.00;;;;;;5039208;28;1569;-70
2024/03/04 01:46:32;;;;;;;;;;;17.60;66.00;;;;;;5035013;28;1479;-70
2024/03/04 01:48:58;;;;;;;;;;;17.60;66.00;;;;;;5037777;28;1624;-71
2024/03/04 01:51:23;;;;;;;;;;;17.60;66.00;;;;;;5036708;28;1527;-72
2024/03/04 01:53:49;;;;;;;;;;;17.60;66.00;;;;;;5040831;28;1968;-70
2024/03/04 01:56:14;;;;;;;;;;;17.60;66.00;;;;;;5040139;28;1421;-70
2024/03/04 01:58:41;;;;;;;;;;;17.60;66.80;;;;;;5039416;28;1485;-71
2024/03/04 02:01:06;;;;;;;;;;;17.60;66.10;;;;;;5037161;28;1271;-71
2024/03/04 02:03:32;;;;;;;;;;;17.60;66.00;;;;;;5042665;28;1331;-71
2024/03/04 02:05:58;;;;;;;;;;;17.60;66.10;;;;;;5039428;28;1446;-71
2024/03/04 02:08:23;;;;;;;;;;;17.60;66.10;;;;;;5038290;28;1256;-75
2024/03/04 02:10:49;;;;;;;;;;;17.60;66.10;;;;;;5043146;28;1549;-70
2024/03/04 02:13:14;;;;;;;;;;;17.60;66.10;;;;;;5038504;28;1977;-70
2024/03/04 02:15:40;;;;;;;;;;;17.60;66.10;;;;;;5037621;28;1440;-70
2024/03/04 02:18:06;;;;;;;;;;;17.60;66.10;;;;;;5041632;28;1624;-70
2024/03/04 02:20:36;;;;;;;;;;;17.60;66.10;;;;;;5038757;28;1496;-70
2024/03/04 02:23:03;;;;;;;;;;;17.60;66.10;;;;;;5038826;28;1370;-71
2024/03/04 02:25:35;;;;;;;;;;;17.60;66.10;;;;;;5038546;28;974;-70
2024/03/04 02:28:02;;;;;;;;;;;17.60;66.10;;;;;;5037800;28;1287;-71
2024/03/04 02:30:27;;;;;;;;;;;17.60;66.10;;;;;;5036226;28;1339;-71
2024/03/04 02:32:53;;;;;;;;;;;17.60;66.10;;;;;;5038995;28;1894;-70
2024/03/04 02:35:20;;;;;;;;;;;17.60;66.10;;;;;;5037980;28;1644;-70
2024/03/04 02:37:45;;;;;;;;;;;17.60;66.10;;;;;;5041081;28;1615;-70
2024/03/04 02:40:11;;;;;;;;;;;17.60;66.20;;;;;;5039525;28;1394;-70
2024/03/04 02:42:36;;;;;;;;;;;17.60;66.20;;;;;;5050110;28;1561;-70
2024/03/04 02:45:02;;;;;;;;;;;17.60;66.20;;;;;;5042061;28;1576;-70
2024/03/04 02:47:27;;;;;;;;;;;17.60;66.20;;;;;;5040390;28;1298;-69
2024/03/04 02:49:53;;;;;;;;;;;17.60;66.20;;;;;;5040629;28;1293;-70
2024/03/04 02:52:18;;;;;;;;;;;17.60;66.20;;;;;;5041439;28;1276;-70
2024/03/04 02:54:44;;;;;;;;;;;17.60;66.20;;;;;;5041369;28;1930;-70
2024/03/04 02:57:10;;;;;;;;;;;17.60;66.20;;;;;;5038329;28;1512;-70
2024/03/04 02:59:36;;;;;;;;;;;17.60;66.20;;;;;;5040135;28;1411;-70
2024/03/04 03:02:02;;;;;;;;;;;17.60;66.20;;;;;;5045156;28;1355;-70
2024/03/04 03:04:27;;;;;;;;;;;17.60;66.20;;;;;;5041374;28;1386;-70
2024/03/04 03:06:53;;;;;;;;;;;17.60;66.20;;;;;;5039052;28;1316;-70
2024/03/04 03:09:18;;;;;;;;;;;17.60;66.20;;;;;;5039244;28;1434;-70
2024/03/04 03:11:44;;;;;;;;;;;17.60;66.20;;;;;;5040715;28;1513;-72
2024/03/04 03:14:09;;;;;;;;;;;17.50;66.20;;;;;;5038390;28;1985;-72
2024/03/04 03:16:35;;;;;;;;;;;17.50;66.20;;;;;;5042832;28;1380;-72
2024/03/04 03:19:00;;;;;;;;;;;17.60;66.20;;;;;;5041659;28;1142;-72
2024/03/04 03:21:26;;;;;;;;;;;17.50;66.20;;;;;;5041912;28;1433;-71
2024/03/04 03:23:51;;;;;;;;;;;17.60;66.20;;;;;;5041873;28;1625;-71
2024/03/04 03:26:17;;;;;;;;;;;17.50;66.20;;;;;;5041203;28;1323;-70
2024/03/04 03:28:42;;;;;;;;;;;17.60;66.30;;;;;;5040856;28;1325;-70
2024/03/04 03:31:08;;;;;;;;;;;17.50;66.20;;;;;;5040937;28;1556;-70
2024/03/04 03:33:34;;;;;;;;;;;17.50;66.20;;;;;;5042249;28;1960;-71
2024/03/04 03:36:00;;;;;;;;;;;17.50;66.20;;;;;;5074129;28;1451;-71
2024/03/04 03:38:26;;;;;;;;;;;17.50;66.20;;;;;;5047012;28;1358;-70
2024/03/04 03:40:51;;;;;;;;;;;17.50;66.20;;;;;;5045202;28;1002;-73
2024/03/04 03:43:17;;;;;;;;;;;17.50;66.20;;;;;;5041177;28;1126;-72
2024/03/04 03:45:43;;;;;;;;;;;17.50;66.20;;;;;;5044890;28;1454;-70
2024/03/04 03:48:09;;;;;;;;;;;17.50;66.20;;;;;;5039825;28;1342;-70
2024/03/04 03:50:35;;;;;;;;;;;17.50;66.20;;;;;;5043667;28;1475;-72
2024/03/04 03:53:00;;;;;;;;;;;17.50;66.20;;;;;;5039982;28;1985;-72
2024/03/04 03:55:26;;;;;;;;;;;17.50;66.20;;;;;;5039348;28;1534;-72
2024/03/04 03:57:51;;;;;;;;;;;17.50;66.30;;;;;;5040906;28;1263;-73
2024/03/04 04:00:17;;;;;;;;;;;17.50;66.30;;;;;;5040765;28;1241;-72
2024/03/04 04:02:43;;;;;;;;;;;17.50;66.30;;;;;;5042685;28;1457;-71
2024/03/04 04:05:08;;;;;;;;;;;17.50;66.30;;;;;;5040302;28;962;-72
2024/03/04 04:07:34;;;;;;;;;;;17.50;66.30;;;;;;5043840;28;1157;-73
2024/03/04 04:09:59;;;;;;;;;;;17.50;66.30;;;;;;5043772;28;859;-72
2024/03/04 04:12:25;;;;;;;;;;;17.50;66.30;;;;;;5041792;28;1260;-72
2024/03/04 04:14:50;;;;;;;;;;;17.50;66.30;;;;;;5042211;28;1967;-73
2024/03/04 04:17:16;;;;;;;;;;;17.50;66.30;;;;;;5036549;28;1551;-72
2024/03/04 04:19:41;;;;;;;;;;;17.50;66.30;;;;;;5042820;28;1156;-71
2024/03/04 04:22:07;;;;;;;;;;;17.50;66.30;;;;;;5039793;28;1295;-72
2024/03/04 04:24:36;;;;;;;;;;;17.50;66.30;;;;;;5039466;28;1270;-72
2024/03/04 04:27:02;;;;;;;;;;;17.50;66.30;;;;;;5041978;28;1667;-72
2024/03/04 04:29:28;;;;;;;;;;;17.50;66.30;;;;;;5038687;28;1396;-71
2024/03/04 04:31:55;;;;;;;;;;;17.50;66.30;;;;;;5038648;28;1544;-71
2024/03/04 04:34:20;;;;;;;;;;;17.50;66.30;;;;;;5037686;28;1922;-72
2024/03/04 04:36:52;;;;;;;;;;;17.50;66.30;;;;;;5040631;28;1653;-71
2024/03/04 04:39:18;;;;;;;;;;;17.50;66.30;;;;;;5041102;28;1542;-71
2024/03/04 04:41:43;;;;;;;;;;;17.50;66.30;;;;;;5040060;28;1356;-72
2024/03/04 04:44:09;;;;;;;;;;;17.50;66.30;;;;;;5041817;28;1463;-72
2024/03/04 04:46:36;;;;;;;;;;;17.50;66.30;;;;;;5070543;28;1369;-72
2024/03/04 04:49:01;;;;;;;;;;;17.50;66.30;;;;;;5040970;28;1270;-71
2024/03/04 04:51:27;;;;;;;;;;;17.50;66.40;;;;;;5040060;28;1419;-71
2024/03/04 04:53:52;;;;;;;;;;;17.50;66.40;;;;;;5043126;28;1955;-72
2024/03/04 04:56:18;;;;;;;;;;;17.50;66.30;;;;;;5042574;28;1365;-71
2024/03/04 04:58:43;;;;;;;;;;;17.50;66.40;;;;;;5041489;28;1342;-73
2024/03/04 05:01:09;;;;;;;;;;;17.50;66.40;;;;;;5038912;28;1365;-72
2024/03/04 05:03:35;;;;;;;;;;;17.50;66.40;;;;;;5021470;28;1155;-72
2024/03/04 05:06:01;;;;;;;;;;;17.50;66.40;;;;;;5037796;28;1561;-71
2024/03/04 05:08:27;;;;;;;;;;;17.50;66.30;;;;;;5037849;28;1353;-71
2024/03/04 05:10:53;;;;;;;;;;;17.50;66.40;;;;;;5038367;28;1345;-71
2024/03/04 05:13:18;;;;;;;;;;;17.50;66.30;;;;;;5040998;28;1983;-71
2024/03/04 05:15:44;;;;;;;;;;;17.50;66.30;;;;;;5035931;28;1560;-72
2024/03/04 05:18:09;;;;;;;;;;;17.50;66.20;;;;;;5040490;28;1585;-71
2024/03/04 05:20:35;;;;;;;;;;;17.50;66.20;;;;;;5037031;28;1430;-70
2024/03/04 05:23:01;;;;;;;;;;;17.60;66.20;;;;;;5037893;28;1556;-71
2024/03/04 05:25:26;;;;;;;;;;;17.60;66.90;;;;;;5034623;28;1487;-71
2024/03/04 05:27:52;;;;;;;;;;;17.60;66.10;;;;;;5038839;28;1552;-72
2024/03/04 05:30:17;;;;;;;;;;;17.60;66.10;;;;;;5040015;28;1403;-72
2024/03/04 05:32:43;;;;;;;;;;;17.60;66.00;;;;;;5038018;28;1641;-72
2024/03/04 05:35:10;;;;;;;;;;;17.60;66.00;;;;;;5038483;28;1902;-72
2024/03/04 05:37:36;;;;;;;;;;;17.60;65.90;;;;;;5045974;28;1395;-72
2024/03/04 05:40:03;;;;;;;;;;;17.60;65.80;;;;;;5040934;28;1425;-72
2024/03/04 05:42:29;;;;;;;;;;;17.70;65.80;;;;;;5037553;28;1299;-73
2024/03/04 05:44:54;;;;;;;;;;;17.70;65.70;;;;;;5037896;28;1507;-72
2024/03/04 05:47:20;;;;;;;;;;;17.70;65.60;;;;;;5038960;28;1552;-72
2024/03/04 05:49:45;;;;;;;;;;;17.70;65.50;;;;;;5040508;28;1676;-70
2024/03/04 05:52:11;;;;;;;;;;;17.80;65.50;;;;;;5040516;28;1359;-72
2024/03/04 05:54:36;;;;;;;;;;;17.80;65.40;;;;;;5040601;28;1902;-73
2024/03/04 05:57:02;;;;;;;;;;;17.80;65.30;;;;;;5038395;28;1438;-73
2024/03/04 05:59:27;;;;;;;;;;;17.80;65.20;;;;;;5037853;28;1444;-71
2024/03/04 06:01:53;;;;;;;;;;;17.80;65.10;;;;;;5037831;28;1504;-72
2024/03/04 06:04:18;;;;;;;;;;;17.90;65.10;;;;;;5071423;28;1253;-72
2024/03/04 06:06:44;;;;;;;;;;;17.90;65.00;;;;;;5039519;28;1298;-70
2024/03/04 06:09:09;;;;;;;;;;;17.90;65.00;;;;;;5038839;28;1414;-72
2024/03/04 06:11:35;;;;;;;;;;;17.90;64.90;;;;;;5039788;28;1327;-72
2024/03/04 06:14:00;;;;;;;;;;;17.90;64.80;;;;;;5042598;28;1914;-71
2024/03/04 06:16:26;;;;;;;;;;;18.00;64.80;;;;;;5041973;28;1499;-72
2024/03/04 06:18:51;;;;;;;;;;;18.00;64.70;;;;;;5042616;28;1856;-71
2024/03/04 06:21:17;;;;;;;;;;;18.00;64.70;;;;;;5046129;28;1259;-72
2024/03/04 06:23:42;;;;;;;;;;;18.00;64.60;;;;;;5043987;28;1474;-71
2024/03/04 06:26:11;;;;;;;;;;;18.00;65.40;;;;;;5042113;28;1322;-72
2024/03/04 06:28:37;;;;;;;;;;;18.00;64.60;;;;;;5042792;28;1464;-72
2024/03/04 06:31:03;;;;;;;;;;;18.00;64.50;;;;;;5050170;28;1633;-72
2024/03/04 06:33:28;;;;;;;;;;;18.00;64.50;;;;;;5072060;28;1955;-72
2024/03/04 06:35:53;;;;;;;;;;;18.00;64.50;;;;;;5044218;28;1098;-73
2024/03/04 06:38:19;;;;;;;;;;;18.10;64.50;;;;;;5041396;28;1257;-71
2024/03/04 06:40:45;;;;;;;;;;;18.10;64.50;;;;;;5040467;28;1231;-72
2024/03/04 06:43:10;;;;;;;;;;;18.10;64.50;;;;;;5048841;28;1347;-73
2024/03/04 06:45:36;;;;;;;;;;;18.10;64.50;;;;;;5048981;28;1031;-71
2024/03/04 06:48:03;;;;;;;;;;;18.10;64.40;;;;;;5044296;28;1203;-71
2024/03/04 06:50:28;;;;;;;;;;;18.10;64.40;;;;;;5039019;28;1273;-72
2024/03/04 06:52:54;;;;;;;;;;;18.10;64.40;;;;;;5043309;28;1264;-72
2024/03/04 06:55:20;;;;;;;;;;;18.10;64.50;;;;;;5038188;28;1894;-72
2024/03/04 06:57:46;;;;;;;;;;;18.10;64.40;;;;;;5042861;28;1174;-71
2024/03/04 07:00:12;;;;;;;;;;;18.10;64.40;;;;;;5040267;28;1017;-72
2024/03/04 07:02:37;;;;;;;;;;;18.10;64.40;;;;;;5039308;28;1288;-71
2024/03/04 07:05:03;;;;;;;;;;;18.10;64.40;;;;;;5033452;28;1967;-69
2024/03/04 07:07:28;;;;;;;;;;;18.10;64.40;;;;;;5039148;28;2077;-70
2024/03/04 07:09:54;;;;;;;;;;;18.10;64.40;;;;;;5041183;28;1073;-69
2024/03/04 07:12:19;;;;;;;;;;;18.10;64.40;;;;;;5042823;28;1562;-70
2024/03/04 07:14:45;;;;;;;;;;;18.10;64.40;;;;;;5039959;28;1971;-70
2024/03/04 07:17:10;;;;;;;;;;;18.10;64.40;;;;;;5039695;28;1662;-69
2024/03/04 07:19:36;;;;;;;;;;;18.10;64.40;;;;;;5036800;28;1414;-69
2024/03/04 07:22:01;;;;;;;;;;;18.10;64.40;;;;;;5038952;28;1347;-69
2024/03/04 07:24:27;;;;;;;;;;;18.10;64.50;;;;;;5039600;28;1250;-69
2024/03/04 07:26:53;;;;;;;;;;;18.10;64.50;;;;;;5040548;28;1844;-71
2024/03/04 07:29:18;;;;;;;;;;;18.10;64.50;;;;;;5038310;28;1357;-71
2024/03/04 07:31:45;;;;;;;;;;;18.10;64.50;;;;;;5040489;28;1396;-70
2024/03/04 07:34:10;;;;;;;;;;;18.10;64.50;;;;;;5036775;28;1953;-70
2024/03/04 07:36:36;;;;;;;;;;;18.10;64.50;;;;;;5040379;28;1437;-70
2024/03/04 07:39:03;;;;;;;;;;;18.10;64.50;;;;;;5039996;28;1388;-70
2024/03/04 07:41:29;;;;;;;;;;;18.00;64.50;;;;;;5042091;28;1456;-68
2024/03/04 07:43:55;;;;;;;;;;;18.00;64.50;;;;;;5036557;28;1298;-69
2024/03/04 07:46:21;;;;;;;;;;;18.00;64.50;;;;;;5038413;28;1476;-69
2024/03/04 07:48:47;;;;;;;;;;;18.00;64.50;;;;;;5041412;28;1315;-69
2024/03/04 07:51:12;;;;;;;;;;;18.00;64.60;;;;;;5039935;28;1531;-69
2024/03/04 07:53:37;;;;;;;;;;;18.00;64.60;;;;;;5038031;28;1906;-69
2024/03/04 07:56:03;;;;;;;;;;;18.00;64.60;;;;;;5038990;28;1408;-70
2024/03/04 07:58:29;;;;;;;;;;;18.00;64.60;;;;;;5039696;28;1466;-71
2024/03/04 08:00:54;;;;;;;;;;;18.00;64.60;;;;;;5039784;28;1504;-69
2024/03/04 08:03:19;;;;;;;;;;;18.00;64.70;;;;;;4999502;28;1122931;-69
2024/03/04 08:05:47;;;;;;;;;;;18.00;64.70;;;;;;5039016;28;1614;-69
2024/03/04 08:08:12;;;;;;;;;;;18.00;64.70;;;;;;5039760;28;1334;-69
2024/03/04 08:10:38;;;;;;;;;;;18.00;64.70;;;;;;5039993;28;1456;-69
2024/03/04 08:13:04;;;;;;;;;;;18.00;64.70;;;;;;5041681;28;1486;-69
2024/03/04 08:15:29;;;;;;;;;;;18.00;64.80;;;;;;5038279;28;1906;-69
2024/03/04 08:17:54;;;;;;;;;;;18.00;64.80;;;;;;5044156;28;1314;-69
2024/03/04 08:20:21;;;;;;;;;;;18.00;64.80;;;;;;5040201;28;1499;-68
2024/03/04 08:22:50;;;;;;;;;;;18.00;64.80;;;;;;5039787;28;1450;-69
2024/03/04 08:25:16;;;;;;;;;;;17.90;64.90;;;;;;5042875;28;1403;-69
2024/03/04 08:27:42;;;;;;;;;;;17.90;64.90;;;;;;5039774;28;1497;-70
2024/03/04 08:30:09;;;;;;;;;;;17.90;64.90;;;;;;5037345;28;1484;-68
2024/03/04 08:32:34;;;;;;;;;;;17.90;64.90;;;;;;5036418;28;1389;-68
2024/03/04 08:35:00;;;;;;;;;;;17.90;64.90;;;;;;5040659;28;1919;-69
2024/03/04 08:37:27;;;;;;;;;;;17.90;64.90;;;;;;5027815;28;1624;-69
2024/03/04 08:39:52;;;;;;;;;;;18.00;65.00;;;;;;5037860;28;1647;-70
2024/03/04 08:42:18;;;;;;;;;;;18.00;65.00;;;;;;5037558;28;1579;-69
2024/03/04 08:44:43;;;;;;;;;;;18.00;65.00;;;;;;5038471;28;1647;-69
2024/03/04 08:47:09;;;;;;;;;;;17.90;65.00;;;;;;5035571;28;1793;-69
2024/03/04 08:49:35;;;;;;;;;;;17.90;65.00;;;;;;5040146;28;1382;-68
2024/03/04 08:52:01;;;;;;;;;;;17.90;65.00;;;;;;5041622;28;1508;-70
2024/03/04 08:54:29;;;;;;;;;;;17.90;65.80;;;;;;5040680;28;1961;-69
2024/03/04 08:56:54;;;;;;;;;;;17.90;65.10;;;;;;5038644;28;1579;-68
2024/03/04 08:59:20;;;;;;;;;;;17.90;65.00;;;;;;5039819;28;1274;-69
2024/03/04 09:01:45;;;;;;;;;;;17.90;65.00;;;;;;5040165;28;1562;-69
2024/03/04 09:04:11;;;;;;;;;;;17.90;65.10;;;;;;5037905;28;1489;-70
2024/03/04 09:06:36;;;;;;;;;;;17.90;65.10;;;;;;5040352;28;1482;-69
2024/03/04 09:09:02;;;;;;;;;;;17.90;65.10;;;;;;5036795;28;1361;-68
2024/03/04 09:11:27;;;;;;;;;;;17.90;65.10;;;;;;5038412;28;1496;-69
2024/03/04 09:13:55;;;;;;;;;;;17.90;65.10;;;;;;5030431;28;1905;-70
2024/03/04 09:16:20;;;;;;;;;;;17.90;65.10;;;;;;5037789;28;1537;-71
2024/03/04 09:18:46;;;;;;;;;;;17.90;65.10;;;;;;5037895;28;1334;-70
2024/03/04 09:21:12;;;;;;;;;;;17.90;65.10;;;;;;5038438;28;1359;-70
2024/03/04 09:23:38;;;;;;;;;;;17.90;65.10;;;;;;5038668;28;1280;-71
2024/03/04 09:26:06;;;;;;;;;;;17.90;65.10;;;;;;5038627;28;1215;-70
2024/03/04 09:28:32;;;;;;;;;;;17.90;65.10;;;;;;5028430;28;1503;-70
2024/03/04 09:30:58;;;;;;;;;;;17.90;65.20;;;;;;5038665;28;1262;-70
2024/03/04 09:33:23;;;;;;;;;;;17.90;65.10;;;;;;5037999;28;1967;-69
2024/03/04 09:35:49;;;;;;;;;;;17.90;65.10;;;;;;5040860;28;1523;-69
2024/03/04 09:38:17;;;;;;;;;;;17.90;65.10;;;;;;5038955;28;1030;-69
2024/03/04 09:40:46;;;;;;;;;;;17.90;65.20;;;;;;5038698;28;1350;-69
2024/03/04 09:43:11;;;;;;;;;;;17.90;65.10;;;;;;5036458;28;1244;-69
2024/03/04 09:45:38;;;;;;;;;;;17.90;65.20;;;;;;5038188;28;1072;-68
2024/03/04 09:48:04;;;;;;;;;;;17.90;65.20;;;;;;5035260;28;1155;-69
2024/03/04 09:50:29;;;;;;;;;;;17.90;65.20;;;;;;5038834;28;911;-71
2024/03/04 09:52:56;;;;;;;;;;;17.90;65.20;;;;;;5040602;28;1506;-71
2024/03/04 09:55:21;;;;;;;;;;;17.90;65.20;;;;;;5038576;28;1902;-71
2024/03/04 09:57:47;;;;;;;;;;;17.90;65.20;;;;;;5037772;28;1509;-71
2024/03/04 10:00:15;;;;;;;;;;;17.90;65.20;;;;;;5041272;28;1603;-69
2024/03/04 10:02:41;;;;;;;;;;;17.90;65.20;;;;;;5038823;28;1579;-70
2024/03/04 10:05:08;;;;;;;;;;;17.90;65.20;;;;;;5036653;28;1584;-70
2024/03/04 10:07:35;;;;;;;;;;;17.90;65.20;;;;;;5038108;28;1613;-71
2024/03/04 10:10:02;;;;;;;;;;;17.90;65.20;;;;;;5039867;28;1451;-70
2024/03/04 10:12:27;;;;;;;;;;;17.90;65.20;;;;;;5038023;28;1394;-71
2024/03/04 10:15:06;;;;;;;;;;;17.90;65.20;;;;;;5038136;28;1965;-70
2024/03/04 10:17:32;;;;;;;;;;;17.90;65.30;;;;;;5046894;28;1565;-71
2024/03/04 10:19:58;;;;;;;;;;;17.90;65.20;;;;;;5036708;28;1308;-70
2024/03/04 10:22:24;;;;;;;;;;;17.90;65.20;;;;;;5038579;28;1405;-70
2024/03/04 10:25:05;;;;;;;;;;;17.90;65.30;;;;;;5039025;28;1410;-70
2024/03/04 10:27:35;;;;;;;;;;;17.90;65.30;;;;;;5046142;28;1374;-70
2024/03/04 10:30:09;;;;;;;;;;;17.90;65.30;;;;;;5040106;28;1228;-69
2024/03/04 10:32:35;;;;;;;;;;;17.90;65.30;;;;;;5046484;28;1556;-71
2024/03/04 10:35:06;;;;;;;;;;;17.90;65.30;;;;;;5035420;28;1894;-71
2024/03/04 10:37:32;;;;;;;;;;;17.90;65.30;;;;;;5037138;28;1457;-71
2024/03/04 10:39:58;;;;;;;;;;;17.90;65.30;;;;;;5037152;28;1260;-71
2024/03/04 10:42:23;;;;;;;;;;;17.90;65.30;;;;;;5042721;28;1350;-71
2024/03/04 10:44:49;;;;;;;;;;;17.90;65.30;;;;;;5039230;28;1866;-71
2024/03/04 10:47:15;;;;;;;;;;;17.90;65.40;;;;;;5047999;28;1186;-70
2024/03/04 10:49:40;;;;;;;;;;;17.90;65.40;;;;;;5024965;28;1388;-70
2024/03/04 10:52:06;;;;;;;;;;;17.90;65.40;;;;;;5040160;28;1467;-70
2024/03/04 10:54:31;;;;;;;;;;;17.90;65.40;;;;;;5040408;28;2018;-70
2024/03/04 10:57:04;;;;;;;;;;;17.90;65.40;;;;;;5040788;28;1346;-70
2024/03/04 10:59:39;;;;;;;;;;;17.90;65.40;;;;;;5043322;28;852;-70
2024/03/04 11:02:10;;;;;;;;;;;17.90;65.40;;;;;;5046278;28;1257;-70
2024/03/04 11:04:36;;;;;;;;;;;17.90;65.40;;;;;;5046334;28;1250;-70
2024/03/04 11:07:04;;;;;;;;;;;17.90;65.50;;;;;;5046215;28;1248;-70
2024/03/04 11:09:29;;;;;;;;;;;17.90;65.40;;;;;;5040410;28;1455;-71
2024/03/04 11:11:57;;;;;;;;;;;17.90;65.50;;;;;;5051122;28;1401;-71
2024/03/04 11:14:27;;;;;;;;;;;17.90;66.50;;;;;;5039640;28;1969;-70
2024/03/04 11:16:55;;;;;;;;;;;18.00;66.50;;;;;;5044164;28;1543;-70
2024/03/04 11:19:33;;;;;;;;;;;17.90;65.60;;;;;;5042177;28;1211;-70
2024/03/04 11:21:58;;;;;;;;;;;18.00;64.70;;;;;;5040167;28;1581;-69
2024/03/04 11:24:24;;;;;;;;;;;18.00;63.60;;;;;;5039812;28;1645;-70
2024/03/04 11:26:49;;;;;;;;;;;17.90;63.20;;;;;;5037607;28;1763;-70
2024/03/04 11:29:15;;;;;;;;;;;17.90;59.30;;;;;;5041471;28;1285;-69
2024/03/04 11:31:40;;;;;;;;;;;17.90;57.10;;;;;;5045116;28;1637;-69
2024/03/04 11:34:08;;;;;;;;;;;17.90;59.00;;;;;;5041008;28;1898;-69
2024/03/04 11:36:39;;;;;;;;;;;17.90;59.30;;;;;;5040887;28;1512;-70
2024/03/04 11:39:05;;;;;;;;;;;17.80;58.60;;;;;;5040035;28;1470;-69
2024/03/04 11:41:38;;;;;;;;;;;17.80;57.90;;;;;;5040348;28;1395;-70
2024/03/04 11:44:04;;;;;;;;;;;17.80;58.60;;;;;;5043352;28;1340;-70
2024/03/04 11:46:30;;;;;;;;;;;17.80;58.60;;;;;;5040845;28;1585;-69
2024/03/04 11:48:58;;;;;;;;;;;17.80;58.60;;;;;;5039057;28;1436;-70
2024/03/04 11:51:42;;;;;;;;;;;17.80;58.60;;;;;;5039027;28;1466;-69
2024/03/04 11:54:08;;;;;;;;;;;17.70;58.60;;;;;;5041051;28;1960;-70
2024/03/04 11:56:33;;;;;;;;;;;17.70;58.50;;;;;;5037228;28;1430;-70
2024/03/04 11:58:59;;;;;;;;;;;17.70;58.30;;;;;;5041119;28;1243;-70
2024/03/04 12:01:24;;;;;;;;;;;17.70;57.10;;;;;;5039883;28;1347;-70
2024/03/04 12:03:51;;;;;;;;;;;17.70;56.30;;;;;;5038474;28;1543;-69
2024/03/04 12:06:16;;;;;;;;;;;17.70;56.00;;;;;;5042405;28;1549;-68
2024/03/04 12:08:42;;;;;;;;;;;17.70;57.70;;;;;;5046703;28;1452;-70
2024/03/04 12:11:08;;;;;;;;;;;17.70;57.80;;;;;;5038771;28;1374;-71
2024/03/04 12:13:34;;;;;;;;;;;17.70;57.30;;;;;;5043832;28;1910;-69
2024/03/04 12:16:00;;;;;;;;;;;17.70;57.90;;;;;;5044773;28;1103;-70
2024/03/04 12:18:28;;;;;;;;;;;17.70;58.40;;;;;;5039386;28;2273;-71
2024/03/04 12:20:54;;;;;;;;;;;17.70;58.50;;;;;;5037762;28;1307;-70
2024/03/04 12:23:20;;;;;;;;;;;17.70;58.20;;;;;;5038017;28;1224;-71
2024/03/04 12:25:46;;;;;;;;;;;17.60;58.30;;;;;;5041223;28;1230;-71
2024/03/04 12:28:17;;;;;;;;;;;17.60;58.40;;;;;;5040608;28;1911;-72
2024/03/04 12:30:42;;;;;;;;;;;17.60;57.20;;;;;;5038308;28;1141;-71
2024/03/04 12:33:08;;;;;;;;;;;17.60;58.20;;;;;;5037250;28;1316;-70
2024/03/04 12:35:33;;;;;;;;;;;17.60;58.10;;;;;;5037579;28;1957;-71
2024/03/04 12:37:59;;;;;;;;;;;17.60;56.90;;;;;;5041400;28;1503;-71
2024/03/04 12:40:25;;;;;;;;;;;17.60;56.30;;;;;;5039098;28;1343;-71
2024/03/04 12:43:02;;;;;;;;;;;17.60;57.80;;;;;;5047965;28;1583;-71
2024/03/04 12:45:28;;;;;;;;;;;17.60;57.90;;;;;;5023083;28;1300;-71
2024/03/04 12:47:55;;;;;;;;;;;17.70;58.30;;;;;;5039985;28;1370;-70
2024/03/04 12:50:21;;;;;;;;;;;17.70;58.40;;;;;;5054375;28;1247;-70
2024/03/04 12:52:47;;;;;;;;;;;17.70;58.40;;;;;;5038671;28;1443;-71
2024/03/04 12:55:14;;;;;;;;;;;17.70;57.60;;;;;;5037062;28;1898;-71
2024/03/04 12:57:39;;;;;;;;;;;17.80;57.80;;;;;;5043202;28;1026;-69
2024/03/04 13:00:12;;;;;;;;;;;17.80;57.70;;;;;;5025853;28;1205;-68
2024/03/04 13:02:41;;;;;;;;;;;17.80;57.40;;;;;;5040124;28;1491;-71
2024/03/04 13:05:07;;;;;;;;;;;17.80;57.00;;;;;;5041048;28;1505;-72
2024/03/04 13:07:32;;;;;;;;;;;17.80;57.00;;;;;;5038969;28;1265;-70
2024/03/04 13:09:58;;;;;;;;;;;17.80;55.70;;;;;;5036693;28;2215;-71
2024/03/04 13:12:23;;;;;;;;;;;17.80;55.20;;;;;;5042140;28;1378;-70
2024/03/04 13:14:49;;;;;;;;;;;17.80;56.70;;;;;;5040312;28;1910;-71
2024/03/04 13:17:14;;;;;;;;;;;17.90;56.70;;;;;;5037139;28;1259;-71
2024/03/04 13:19:39;;;;;;;;;;;17.90;56.80;;;;;;5036178;28;1436;-70
2024/03/04 13:22:05;;;;;;;;;;;17.90;55.70;;;;;;5039208;28;1336;-71
2024/03/04 13:24:30;;;;;;;;;;;17.90;57.10;;;;;;5039830;28;1489;-70
2024/03/04 13:26:56;;;;;;;;;;;17.90;56.00;;;;;;5037214;28;1660;-71
2024/03/04 13:29:21;;;;;;;;;;;17.90;56.10;;;;;;5038622;28;1365;-72
2024/03/04 13:31:47;;;;;;;;;;;17.90;57.10;;;;;;5041224;28;1629;-69
2024/03/04 13:34:12;;;;;;;;;;;17.90;57.00;;;;;;5037240;28;1906;-69
2024/03/04 13:36:38;;;;;;;;;;;17.90;56.80;;;;;;5046646;28;1368;-69
2024/03/04 13:39:03;;;;;;;;;;;17.90;55.50;;;;;;5038950;28;1055;-69
2024/03/04 13:41:30;;;;;;;;;;;18.00;56.40;;;;;;5070991;28;1233;-68
2024/03/04 13:43:55;;;;;;;;;;;18.00;57.20;;;;;;5040576;28;1393;-69
2024/03/04 13:46:21;;;;;;;;;;;18.00;56.80;;;;;;5045661;28;1770;-70
2024/03/04 13:48:46;;;;;;;;;;;18.00;56.30;;;;;;5039625;28;931;-71
2024/03/04 13:51:12;;;;;;;;;;;18.00;56.40;;;;;;5038488;28;1252;-70
2024/03/04 13:53:37;;;;;;;;;;;18.00;54.40;;;;;;5038731;28;1906;-70
2024/03/04 13:56:03;;;;;;;;;;;18.00;56.20;;;;;;5041271;28;1435;-71
2024/03/04 13:58:29;;;;;;;;;;;18.00;55.50;;;;;;5037687;28;1357;-70
2024/03/04 14:00:54;;;;;;;;;;;18.00;56.50;;;;;;5039441;28;1488;-70
2024/03/04 14:03:20;;;;;;;;;;;18.00;56.60;;;;;;5035398;28;1355;-70
2024/03/04 14:05:45;;;;;;;;;;;18.00;56.80;;;;;;5038599;28;1569;-70
2024/03/04 14:08:10;;;;;;;;;;;18.00;56.50;;;;;;5046589;28;2016;-70
2024/03/04 14:10:37;;;;;;;;;;;18.00;56.40;;;;;;5038080;28;1930;-70
2024/03/04 14:13:03;;;;;;;;;;;18.00;56.20;;;;;;5036503;28;1979;-69
2024/03/04 14:15:28;;;;;;;;;;;18.00;55.60;;;;;;5035056;28;1922;-71
2024/03/04 14:17:54;;;;;;;;;;;18.00;56.20;;;;;;5038282;28;1661;-69
2024/03/04 14:20:20;;;;;;;;;;;18.00;56.30;;;;;;5036318;28;1352;-70
2024/03/04 14:22:45;;;;;;;;;;;18.00;55.80;;;;;;5037555;28;1535;-69
2024/03/04 14:25:11;;;;;;;;;;;17.90;54.60;;;;;;5037648;28;1072;-68